Aérodrome :
LOGIN :

S'inscrire | Disclaimer

   EN    FR    IT 

 










Légende :    VFR   VFR Marginal   IFR   IFR Intensif   IFR Très Intensif
Visi : 
Plafond : 
>= 8 km
>= 3000ft
5 à 8 km
1000 à 3000 ft
1500m à 5 km
500 à 1000 ft
800 à 1500m
200 à 500 ft
< 800m
< 200 ft
Symboles :   Orages  Brouillard  Fortes neiges  Fortes précipitations  Vent > 20 kt
SIGMETs :   Divers  Orages  Givrage  Turbulence  Onde Orograph.  Cendres Volcan.






- Altitude de l'aérodrome : 499 ft
- Code IATA : TLS


LFBO - Toulouse / Blagnac

DERNIER METAR :
  • 240830Z AUTO VRB02KT 8000 NSC 05/03 Q1022 BECMG 14012KT

METARs EXPIRÉS :
  • 240800Z AUTO 13003KT 090V170 7000 NSC 03/03 Q1022 NOSIG
  • 240730Z AUTO 21003KT 5000 BR NSC 01/00 Q1022 BECMG 14012KT
  • 240700Z AUTO VRB01KT 3700 BR NSC 02/01 Q1022 BECMG 5000 NSW
  • 240630Z AUTO 14001KT 5000 BR NSC 01/01 Q1022 NOSIG
  • 240600Z AUTO 15005KT 5000 BR NSC 01/00 Q1023 NOSIG

TAF TAF LFBO
Valide du 24 à 06h jusqu'au 25 à 12h UTC


240500Z 2406/2512 VRB02KT 5000 NSC
PROB40
TEMPO 2406/2408 3000 BR
BECMG 2409/2411 14012KT
BECMG 2423/2501 VRB02KT
PROB40
TEMPO 2500/2509 BKN012
BECMG 2510/2512 14010KT
ATIS : +33 5 62 74 66 36



MET'MAP, la Météo Aéronautique d'un coup d'oeil ! - Copyright ORBIFLY Décembre 2007 - Disclaimer

ORBIFLY MET'MAP TEAM :

Programmation & Développement : Alexandra Zaïnal
Sur une idée originale de : Baudouin d'Aumeries
Assistance à la programmation : Marc-Olivier Méhu
Soutien technique & logistique : Manuel Goepfert

Contact : metmap@orbifly.com




SOURCES & CREDITS :

   NOAA